Time;durP1;ratioP1;P1;durP2;ratioP2;P2;SDS_P1;SDS_P2;PMS_P1;PMS_P2;Temp;Humidity;BMP_temperature;BMP_pressure;BME280_temperature;BME280_humidity;BME280_pressure;Samples;Min_cycle;Max_cycle;Signal;HPM_P1;HPM_P2
2021/06/23 00:00:29;;;;;;;0.52;0.32;;;18.90;99.90;;;;;;4979368;28;20084;-93
2021/06/23 00:03:01;;;;;;;0.08;0.08;;;19.00;99.90;;;;;;4979929;28;20084;-92
2021/06/23 00:05:27;;;;;;;0.17;0.17;;;18.90;99.90;;;;;;4979500;28;20026;-93
2021/06/23 00:07:53;;;;;;;0.80;0.63;;;18.90;99.90;;;;;;4979518;28;20025;-91
2021/06/23 00:10:20;;;;;;;0.15;0.15;;;18.80;99.90;;;;;;4979045;28;20032;-92
2021/06/23 00:12:47;;;;;;;0.10;0.10;;;18.70;99.90;;;;;;4979186;28;20081;-91
2021/06/23 00:15:16;;;;;;;0.00;0.00;;;18.60;99.90;;;;;;4978754;28;20026;-92
2021/06/23 00:17:45;;;;;;;0.00;0.00;;;18.70;99.90;;;;;;4978525;28;20544;-92
2021/06/23 00:20:12;;;;;;;0.30;0.20;;;18.90;99.90;;;;;;4978829;28;20092;-93
2021/06/23 00:22:37;;;;;;;0.00;0.00;;;18.90;99.90;;;;;;4979041;28;20067;-92
2021/06/23 00:25:04;;;;;;;0.00;0.00;;;18.80;99.90;;;;;;4979106;28;20050;-93
2021/06/23 00:27:29;;;;;;;0.00;0.00;;;18.90;99.90;;;;;;4978945;28;20018;-92
2021/06/23 00:29:55;;;;;;;0.00;0.00;;;19.00;99.90;;;;;;4978909;28;20030;-93
2021/06/23 00:32:21;;;;;;;0.10;0.10;;;19.00;99.90;;;;;;4979236;28;20483;-92
2021/06/23 00:34:48;;;;;;;4.47;0.50;;;19.00;99.90;;;;;;4979171;28;20033;-92
2021/06/23 00:37:13;;;;;;;0.03;0.03;;;18.90;99.90;;;;;;4978940;28;20446;-92
2021/06/23 00:39:39;;;;;;;0.10;0.10;;;18.70;99.90;;;;;;4978752;28;20100;-92
2021/06/23 00:42:08;;;;;;;0.40;0.40;;;18.60;99.90;;;;;;4978595;28;20471;-92
2021/06/23 00:44:34;;;;;;;0.65;0.28;;;18.40;99.90;;;;;;4979105;28;20022;-92
2021/06/23 00:47:00;;;;;;;1.55;0.65;;;18.30;99.90;;;;;;4978754;28;20110;-93
2021/06/23 00:49:33;;;;;;;0.00;0.00;;;18.20;99.90;;;;;;4979053;28;20029;-93
2021/06/23 00:52:03;;;;;;;0.00;0.00;;;18.30;99.90;;;;;;4979004;28;20029;-92
2021/06/23 00:54:29;;;;;;;0.10;0.10;;;18.20;99.90;;;;;;4978614;28;20026;-93
2021/06/23 00:56:58;;;;;;;0.60;0.60;;;18.20;99.90;;;;;;4978968;28;20022;-92
2021/06/23 00:59:25;;;;;;;0.10;0.10;;;18.10;99.90;;;;;;4978840;28;20026;-93
2021/06/23 01:01:54;;;;;;;0.20;0.20;;;18.00;99.90;;;;;;4978594;28;20088;-93
2021/06/23 01:04:21;;;;;;;0.00;0.00;;;17.90;99.90;;;;;;4978692;28;20034;-92
2021/06/23 01:06:47;;;;;;;0.10;0.10;;;17.90;99.90;;;;;;4978669;28;20491;-92
2021/06/23 01:09:13;;;;;;;0.00;0.00;;;18.00;99.90;;;;;;4978150;28;20073;-92
2021/06/23 01:12:14;;;;;;;0.20;0.20;;;18.00;99.90;;;;;;4978432;28;20018;-92
2021/06/23 01:14:42;;;;;;;0.00;0.00;;;18.00;99.90;;;;;;4978617;28;20487;-92
2021/06/23 01:17:09;;;;;;;0.45;0.45;;;17.90;99.90;;;;;;4978641;28;20072;-91
2021/06/23 01:19:41;;;;;;;0.63;0.63;;;17.80;99.90;;;;;;4978489;28;20037;-92
2021/06/23 01:22:06;;;;;;;;;;;17.70;99.90;;;;;;4979117;28;20398;-92
2021/06/23 01:24:32;;;;;;;0.30;0.30;;;17.60;99.90;;;;;;4978461;28;19905;-92
2021/06/23 01:26:58;;;;;;;0.93;0.73;;;17.60;99.90;;;;;;4978444;28;20570;-92
2021/06/23 01:29:24;;;;;;;0.00;0.00;;;17.70;99.90;;;;;;4980367;28;20121;-93
2021/06/23 01:31:50;;;;;;;0.00;0.00;;;17.80;99.90;;;;;;4982084;28;20029;-93
2021/06/23 01:34:16;;;;;;;0.00;0.00;;;17.90;99.90;;;;;;4981735;28;20113;-92
2021/06/23 01:36:42;;;;;;;0.00;0.00;;;18.00;99.90;;;;;;4982094;28;20030;-92
2021/06/23 01:39:08;;;;;;;0.10;0.10;;;18.20;99.90;;;;;;4982372;28;20026;-93
2021/06/23 01:41:33;;;;;;;0.13;0.13;;;18.20;99.90;;;;;;4981839;28;20117;-92
2021/06/23 01:44:01;;;;;;;0.30;0.28;;;18.00;99.90;;;;;;4982144;28;20037;-92
2021/06/23 01:46:27;;;;;;;0.10;0.10;;;18.00;99.90;;;;;;4981801;28;20518;-92
2021/06/23 01:48:55;;;;;;;0.00;0.00;;;18.00;99.90;;;;;;4981658;28;20022;-92
2021/06/23 01:51:21;;;;;;;0.10;0.10;;;18.20;99.90;;;;;;4981760;28;20030;-92
2021/06/23 01:53:47;;;;;;;0.00;0.00;;;18.30;99.90;;;;;;4981916;28;20030;-93
2021/06/23 01:56:24;;;;;;;0.00;0.00;;;18.40;99.90;;;;;;4981683;28;20026;-92
2021/06/23 01:59:00;;;;;;;0.20;0.20;;;18.40;99.90;;;;;;4982133;28;20022;-93
2021/06/23 02:01:50;;;;;;;0.00;0.00;;;18.30;99.90;;;;;;4981929;28;20577;-94
2021/06/23 02:04:39;;;;;;;0.10;0.10;;;18.30;99.90;;;;;;4981542;28;20026;-92
2021/06/23 02:07:45;;;;;;;0.32;0.32;;;18.40;99.90;;;;;;4981425;28;20092;-92
2021/06/23 02:10:25;;;;;;;0.55;0.52;;;18.30;99.90;;;;;;5014063;28;20022;-93
2021/06/23 02:13:22;;;;;;;0.00;0.00;;;18.00;99.90;;;;;;5013725;28;20030;-92
2021/06/23 02:15:50;;;;;;;0.10;0.10;;;17.70;99.90;;;;;;5013834;28;20025;-92
2021/06/23 02:18:16;;;;;;;0.20;0.20;;;17.70;99.90;;;;;;4981055;28;20041;-93
2021/06/23 02:20:42;;;;;;;0.00;0.00;;;17.90;99.90;;;;;;4981118;28;20022;-93
2021/06/23 02:23:10;;;;;;;0.00;0.00;;;18.10;99.90;;;;;;4981118;28;20076;-92
2021/06/23 02:25:37;;;;;;;0.03;0.03;;;18.40;99.90;;;;;;4980915;28;20022;-93
2021/06/23 02:28:04;;;;;;;0.00;0.00;;;18.50;99.90;;;;;;4980910;28;20057;-93
2021/06/23 02:30:29;;;;;;;0.10;0.10;;;18.70;99.90;;;;;;4980943;28;20499;-92
2021/06/23 02:32:56;;;;;;;0.10;0.10;;;18.80;99.90;;;;;;4981467;28;20064;-92
2021/06/23 02:35:25;;;;;;;0.10;0.10;;;18.80;99.90;;;;;;4983291;28;20080;-93
2021/06/23 02:37:51;;;;;;;0.00;0.00;;;18.80;99.90;;;;;;4982648;28;20137;-92
2021/06/23 02:40:18;;;;;;;0.00;0.00;;;18.70;99.90;;;;;;4981053;28;20105;-92
2021/06/23 02:42:45;;;;;;;0.10;0.10;;;18.50;99.90;;;;;;4982036;28;20509;-92
2021/06/23 02:45:13;;;;;;;0.10;0.10;;;18.40;99.90;;;;;;4982744;28;20524;-92
2021/06/23 02:47:39;;;;;;;0.10;0.10;;;18.40;99.90;;;;;;4982513;28;20022;-93
2021/06/23 02:50:06;;;;;;;0.20;0.20;;;18.30;99.90;;;;;;4982013;28;20390;-92
2021/06/23 02:52:35;;;;;;;0.10;0.10;;;18.30;99.90;;;;;;4982839;28;20112;-92
2021/06/23 02:55:02;;;;;;;0.00;0.00;;;18.20;99.90;;;;;;4985632;28;20033;-92
2021/06/23 02:57:28;;;;;;;0.10;0.10;;;18.10;99.90;;;;;;4983629;28;20034;-92
2021/06/23 02:59:55;;;;;;;0.10;0.10;;;18.20;99.90;;;;;;4980165;28;20028;-93
2021/06/23 03:02:20;;;;;;;0.10;0.10;;;18.30;99.90;;;;;;4980446;28;20033;-92
2021/06/23 03:04:47;;;;;;;0.10;0.10;;;18.30;99.90;;;;;;4980715;28;20415;-93
2021/06/23 03:07:14;;;;;;;0.00;0.00;;;18.30;99.90;;;;;;4980441;28;20026;-93
2021/06/23 03:09:41;;;;;;;0.08;0.08;;;18.20;99.90;;;;;;4980282;28;20566;-93
2021/06/23 03:12:12;;;;;;;0.10;0.10;;;18.30;99.90;;;;;;4980482;28;20554;-93
2021/06/23 03:14:41;;;;;;;0.45;0.43;;;18.20;99.90;;;;;;4980413;28;20425;-92
2021/06/23 03:17:07;;;;;;;0.10;0.10;;;18.10;99.90;;;;;;4979687;28;20022;-91
2021/06/23 03:19:34;;;;;;;0.10;0.10;;;18.20;99.90;;;;;;4979905;28;20084;-90
2021/06/23 03:22:06;;;;;;;0.10;0.10;;;18.30;99.90;;;;;;4980065;28;20525;-92
2021/06/23 03:24:41;;;;;;;0.10;0.10;;;18.40;99.90;;;;;;4980016;28;20030;-92
2021/06/23 03:27:13;;;;;;;0.10;0.10;;;18.40;99.90;;;;;;4979577;28;20546;-92
2021/06/23 03:29:41;;;;;;;;;;;18.40;99.90;;;;;;4980106;28;20022;-92
2021/06/23 03:32:10;;;;;;;0.10;0.10;;;18.50;99.90;;;;;;4979330;28;19906;-92
2021/06/23 03:34:36;;;;;;;0.10;0.10;;;18.60;99.90;;;;;;4993361;28;20017;-91
2021/06/23 03:37:03;;;;;;;0.00;0.00;;;18.60;99.90;;;;;;4984186;28;20072;-91
2021/06/23 03:39:33;;;;;;;0.10;0.10;;;18.70;99.90;;;;;;4980038;28;20446;-92
2021/06/23 03:41:59;;;;;;;0.10;0.10;;;18.70;99.90;;;;;;4979837;28;20499;-91
2021/06/23 03:44:25;;;;;;;0.10;0.10;;;18.70;99.90;;;;;;4979963;28;20034;-92
2021/06/23 03:46:52;;;;;;;0.10;0.10;;;18.70;99.90;;;;;;4979580;28;20061;-92
2021/06/23 03:49:18;;;;;;;0.20;0.20;;;18.80;99.90;;;;;;4979479;28;20390;-91
2021/06/23 03:51:44;;;;;;;0.00;0.00;;;18.70;99.90;;;;;;4979380;28;20026;-92
2021/06/23 03:54:09;;;;;;;0.10;0.10;;;18.70;99.90;;;;;;4979418;28;20128;-92
2021/06/23 03:56:35;;;;;;;0.10;0.10;;;18.80;99.90;;;;;;4987437;28;20010;-91
2021/06/23 03:59:01;;;;;;;0.10;0.10;;;18.90;99.90;;;;;;5003019;28;20123;-91
2021/06/23 04:01:27;;;;;;;0.00;0.00;;;18.90;99.90;;;;;;4984367;28;20486;-91
2021/06/23 04:03:58;;;;;;;0.00;0.00;;;18.90;99.90;;;;;;4981332;28;20088;-91
2021/06/23 04:06:35;;;;;;;0.10;0.10;;;18.90;99.90;;;;;;5000418;28;20042;-91
2021/06/23 04:09:16;;;;;;;0.10;0.10;;;18.80;99.90;;;;;;4979941;28;20029;-92
2021/06/23 04:12:01;;;;;;;0.03;0.03;;;18.50;99.90;;;;;;4980720;28;20045;-91
2021/06/23 04:15:01;;;;;;;0.10;0.10;;;18.60;99.90;;;;;;4980047;28;20057;-92
2021/06/23 04:17:36;;;;;;;0.10;0.10;;;18.80;99.90;;;;;;4980019;28;20479;-92
2021/06/23 04:20:20;;;;;;;7.38;5.25;;;18.90;99.90;;;;;;4979757;28;20079;-91
2021/06/23 04:22:48;;;;;;;;;;;19.10;99.90;;;;;;4973151;28;20039;-92
2021/06/23 04:25:29;;;;;;;0.10;0.10;;;19.10;99.90;;;;;;4994007;28;19956;-92
2021/06/23 04:28:07;;;;;;;0.10;0.10;;;19.20;99.90;;;;;;4975446;28;20406;-92
2021/06/23 04:30:44;;;;;;;0.10;0.10;;;19.10;99.90;;;;;;4979942;28;20034;-91
2021/06/23 04:33:12;;;;;;;0.00;0.00;;;19.10;99.90;;;;;;4978971;28;20121;-92
2021/06/23 04:35:47;;;;;;;0.10;0.10;;;19.10;99.90;;;;;;4979745;28;20514;-91
2021/06/23 04:38:31;;;;;;;0.10;0.10;;;19.10;99.90;;;;;;4978443;28;20114;-91
2021/06/23 04:41:06;;;;;;;0.10;0.10;;;19.10;99.90;;;;;;4979389;28;20085;-92
2021/06/23 04:43:46;;;;;;;0.10;0.10;;;19.00;99.90;;;;;;4980050;28;20053;-92
2021/06/23 04:46:25;;;;;;;4.72;4.47;;;19.00;99.90;;;;;;4980525;28;20434;-91
2021/06/23 04:49:13;;;;;;;0.00;0.00;;;18.90;99.90;;;;;;4976311;28;20030;-92
2021/06/23 04:51:55;;;;;;;0.08;0.08;;;18.90;99.90;;;;;;4979180;28;20390;-91
2021/06/23 04:54:44;;;;;;;;;;;19.00;99.90;;;;;;4979074;28;20034;-91
2021/06/23 04:57:17;;;;;;;1.42;0.32;;;19.00;99.90;;;;;;4996051;28;19929;-92
2021/06/23 04:59:59;;;;;;;0.03;0.03;;;19.20;99.90;;;;;;4970613;28;20452;-92
2021/06/23 05:02:27;;;;;;;0.10;0.10;;;19.20;99.90;;;;;;4954552;23;20054;-94
2021/06/23 05:04:55;;;;;;;0.10;0.10;;;19.20;99.90;;;;;;4946652;28;20110;-94
2021/06/23 05:07:33;;;;;;;1.65;0.57;;;19.20;99.90;;;;;;4947558;28;20028;-94
2021/06/23 05:10:06;;;;;;;4.10;3.72;;;19.20;99.90;;;;;;4960957;28;20065;-94
2021/06/23 05:12:32;;;;;;;0.10;0.10;;;19.20;99.90;;;;;;5032559;23;20044;-76
2021/06/23 05:14:58;;;;;;;0.00;0.00;;;19.20;99.90;;;;;;5055492;28;20033;-77
2021/06/23 05:17:24;;;;;;;0.10;0.10;;;19.30;99.90;;;;;;5055295;28;20491;-77
2021/06/23 05:19:50;;;;;;;0.00;0.00;;;19.40;99.90;;;;;;5055327;28;20148;-76
2021/06/23 05:22:16;;;;;;;0.10;0.10;;;19.40;99.90;;;;;;5037259;28;20021;-77
2021/06/23 05:24:42;;;;;;;0.10;0.10;;;19.50;99.90;;;;;;5037166;28;20484;-77
2021/06/23 05:27:09;;;;;;;0.05;0.05;;;19.30;99.90;;;;;;5020769;28;20021;-77
2021/06/23 05:29:35;;;;;;;0.00;0.00;;;19.10;99.90;;;;;;5054921;28;20021;-76
2021/06/23 05:32:02;;;;;;;0.00;0.00;;;19.30;99.90;;;;;;5036876;28;20028;-76
2021/06/23 05:34:30;;;;;;;0.10;0.10;;;19.40;99.90;;;;;;5055009;28;20028;-77
2021/06/23 05:36:57;;;;;;;0.10;0.10;;;19.60;99.90;;;;;;5027407;28;20537;-77
2021/06/23 05:39:24;;;;;;;0.10;0.10;;;19.60;99.90;;;;;;5038686;28;20459;-77
2021/06/23 05:41:51;;;;;;;0.10;0.10;;;19.50;99.90;;;;;;5035108;28;20064;-77
2021/06/23 05:44:16;;;;;;;0.10;0.10;;;19.70;99.90;;;;;;5007910;28;20029;-77
2021/06/23 05:46:42;;;;;;;0.10;0.10;;;19.70;99.90;;;;;;5000456;28;20095;-76
2021/06/23 05:49:08;;;;;;;0.10;0.10;;;19.80;99.90;;;;;;5033620;28;20021;-77
2021/06/23 05:51:34;;;;;;;0.10;0.10;;;19.70;99.90;;;;;;5054165;28;20025;-77
2021/06/23 05:54:00;;;;;;;0.10;0.10;;;19.80;99.90;;;;;;5054327;28;20075;-77
2021/06/23 05:56:25;;;;;;;0.17;0.17;;;19.80;99.90;;;;;;5020159;28;20025;-77
2021/06/23 05:58:51;;;;;;;0.00;0.00;;;19.90;99.90;;;;;;5054394;28;20029;-77
2021/06/23 06:01:17;;;;;;;0.20;0.20;;;19.90;99.90;;;;;;5057750;28;20535;-76
2021/06/23 06:03:43;;;;;;;0.13;0.13;;;19.80;99.90;;;;;;5056239;28;20035;-76
2021/06/23 06:06:08;;;;;;;0.05;0.05;;;19.60;99.90;;;;;;5056539;28;20376;-76
2021/06/23 06:08:34;;;;;;;0.08;0.08;;;19.50;99.90;;;;;;5074160;28;20468;-77
2021/06/23 06:11:00;;;;;;;0.10;0.10;;;19.60;99.90;;;;;;5073065;28;20024;-76
2021/06/23 06:13:27;;;;;;;0.00;0.00;;;19.70;99.90;;;;;;5074118;28;20319;-77
2021/06/23 06:15:52;;;;;;;0.10;0.10;;;19.80;99.90;;;;;;5072996;28;20025;-77
2021/06/23 06:18:19;;;;;;;0.10;0.10;;;19.80;99.90;;;;;;5073964;28;20427;-77
2021/06/23 06:20:44;;;;;;;0.10;0.10;;;19.70;99.90;;;;;;5055826;28;20106;-76
2021/06/23 06:23:10;;;;;;;0.10;0.10;;;19.70;99.90;;;;;;5055656;28;20460;-77
2021/06/23 06:25:36;;;;;;;0.10;0.10;;;19.70;99.90;;;;;;5054648;28;20102;-76
2021/06/23 06:28:02;;;;;;;0.10;0.10;;;19.60;99.90;;;;;;5056014;28;20021;-77
2021/06/23 06:30:28;;;;;;;0.10;0.10;;;19.60;99.90;;;;;;5073817;28;20050;-76
2021/06/23 06:32:55;;;;;;;0.10;0.10;;;19.70;99.90;;;;;;5059568;28;20494;-77
2021/06/23 06:35:21;;;;;;;0.00;0.00;;;19.90;99.90;;;;;;5065809;28;20102;-77
2021/06/23 06:37:46;;;;;;;0.05;0.05;;;20.00;99.90;;;;;;5065365;28;20540;-77
2021/06/23 06:40:13;;;;;;;0.10;0.10;;;20.10;99.90;;;;;;5049097;28;20123;-77
2021/06/23 06:42:39;;;;;;;0.10;0.10;;;20.10;99.90;;;;;;5043872;28;20041;-77
2021/06/23 06:45:06;;;;;;;0.40;0.30;;;20.00;99.90;;;;;;5050017;28;20035;-76
2021/06/23 06:47:32;;;;;;;0.00;0.00;;;20.20;99.90;;;;;;5061777;28;20104;-76
2021/06/23 06:49:57;;;;;;;0.38;0.30;;;20.20;99.90;;;;;;5064509;28;20463;-76
2021/06/23 06:52:23;;;;;;;0.10;0.10;;;20.40;99.90;;;;;;5057159;28;20388;-78
2021/06/23 06:54:49;;;;;;;0.00;0.00;;;20.50;99.90;;;;;;5057737;28;20495;-76
2021/06/23 06:57:15;;;;;;;0.00;0.00;;;20.60;99.90;;;;;;5067173;28;20056;-78
2021/06/23 06:59:40;;;;;;;0.00;0.00;;;20.60;99.90;;;;;;5059700;28;20024;-77
2021/06/23 07:02:06;;;;;;;0.00;0.00;;;20.70;99.90;;;;;;5027905;28;20029;-77
2021/06/23 07:04:33;;;;;;;0.17;0.10;;;20.70;99.90;;;;;;5050531;28;20360;-77
2021/06/23 07:06:59;;;;;;;0.10;0.10;;;20.70;99.90;;;;;;5038229;28;20033;-76
2021/06/23 07:09:25;;;;;;;0.10;0.10;;;20.70;99.90;;;;;;5047949;28;20040;-77
2021/06/23 07:11:51;;;;;;;0.22;0.22;;;20.70;99.90;;;;;;5066692;28;20033;-77
2021/06/23 07:14:20;;;;;;;0.10;0.10;;;20.60;99.90;;;;;;5024817;28;20029;-77
2021/06/23 07:16:46;;;;;;;0.50;0.50;;;20.70;99.90;;;;;;5066894;28;20029;-77
2021/06/23 07:19:12;;;;;;;0.10;0.10;;;20.80;99.90;;;;;;5054679;28;20484;-77
2021/06/23 07:21:38;;;;;;;0.10;0.10;;;20.90;99.90;;;;;;5043368;28;20033;-77
2021/06/23 07:24:04;;;;;;;0.05;0.05;;;20.80;99.90;;;;;;5038350;28;20082;-77
2021/06/23 07:26:31;;;;;;;0.10;0.10;;;20.80;99.90;;;;;;5023788;28;20391;-77
2021/06/23 07:29:02;;;;;;;0.25;0.25;;;20.90;99.90;;;;;;5060865;28;20060;-77
2021/06/23 07:36:43;;;;;;;0.85;0.85;;;20.90;99.90;;;;;;5048514;28;20037;-77
2021/06/23 07:39:13;;;;;;;0.05;0.05;;;20.80;99.90;;;;;;5038875;28;20029;-77
2021/06/23 07:41:42;;;;;;;0.65;0.60;;;21.00;99.90;;;;;;5035574;28;20028;-77
2021/06/23 07:44:09;;;;;;;0.03;0.03;;;21.10;99.90;;;;;;5029973;28;20410;-75
2021/06/23 07:46:40;;;;;;;0.20;0.20;;;21.30;99.90;;;;;;5033428;28;20503;-75
2021/06/23 07:49:12;;;;;;;0.00;0.00;;;21.30;99.90;;;;;;5033387;28;20077;-75
2021/06/23 07:51:49;;;;;;;;;;;21.70;99.90;;;;;;5027110;28;20082;-75
2021/06/23 08:10:13;;;;;;;2.65;1.30;;;23.20;96.70;;;;;;5057363;28;20095;-75
2021/06/23 08:12:44;;;;;;;0.10;0.10;;;23.40;93.30;;;;;;5064303;28;20481;-75
2021/06/23 08:15:11;;;;;;;0.10;0.10;;;23.60;92.90;;;;;;5062570;28;20111;-75
2021/06/23 08:17:37;;;;;;;0.38;0.38;;;23.60;90.90;;;;;;5026415;28;20025;-75
2021/06/23 08:20:05;;;;;;;0.10;0.10;;;23.70;89.60;;;;;;5041678;28;20031;-75
2021/06/23 08:22:31;;;;;;;0.32;0.32;;;23.90;90.20;;;;;;5056483;28;20025;-75
2021/06/23 08:24:56;;;;;;;0.32;0.32;;;24.20;88.40;;;;;;5037302;28;20017;-74
2021/06/23 08:27:22;;;;;;;0.10;0.10;;;24.40;84.00;;;;;;5053672;28;20362;-74
2021/06/23 08:29:48;;;;;;;0.00;0.00;;;24.60;83.10;;;;;;5022971;28;20025;-74
2021/06/23 08:32:14;;;;;;;0.00;0.00;;;24.70;81.70;;;;;;5067807;28;20017;-73
2021/06/23 08:34:39;;;;;;;0.13;0.13;;;24.80;79.60;;;;;;5055292;28;20017;-74
2021/06/23 08:37:05;;;;;;;1.23;1.13;;;24.70;78.60;;;;;;5033203;28;20056;-74
2021/06/23 08:39:31;;;;;;;0.40;0.40;;;24.70;79.50;;;;;;5062193;28;20481;-74
2021/06/23 08:41:57;;;;;;;0.10;0.10;;;24.40;79.60;;;;;;5020880;28;20032;-74
2021/06/23 08:44:23;;;;;;;0.08;0.08;;;24.50;78.80;;;;;;5059714;28;20071;-74
2021/06/23 08:46:50;;;;;;;1.20;1.10;;;24.80;79.40;;;;;;5055529;28;20060;-75
2021/06/23 08:49:16;;;;;;;0.98;0.57;;;24.70;78.80;;;;;;5025919;28;20053;-75
2021/06/23 08:51:43;;;;;;;0.10;0.10;;;24.20;82.30;;;;;;5032675;28;20029;-75
2021/06/23 08:54:09;;;;;;;0.00;0.00;;;23.80;84.70;;;;;;5021291;28;20036;-75
2021/06/23 08:56:36;;;;;;;0.40;0.38;;;24.20;84.70;;;;;;5044131;28;20500;-75
2021/06/23 08:59:08;;;;;;;0.52;0.25;;;24.50;81.10;;;;;;5055556;28;20033;-75
2021/06/23 09:01:34;;;;;;;0.70;0.70;;;24.90;81.80;;;;;;5033045;28;20094;-75
2021/06/23 09:04:11;;;;;;;0.50;0.50;;;25.40;78.00;;;;;;5042083;28;20103;-75
2021/06/23 09:06:53;;;;;;;0.00;0.00;;;25.20;77.60;;;;;;5064508;28;20029;-75
2021/06/23 09:09:21;;;;;;;0.10;0.10;;;25.20;78.40;;;;;;5037354;28;20021;-75
2021/06/23 09:11:49;;;;;;;0.00;0.00;;;25.80;75.30;;;;;;5061087;28;20107;-75
2021/06/23 09:14:16;;;;;;;0.10;0.10;;;25.30;77.70;;;;;;5041890;28;20032;-75
2021/06/23 09:17:07;;;;;;;0.25;0.15;;;24.80;79.40;;;;;;5059300;28;20526;-75
2021/06/23 09:19:41;;;;;;;0.25;0.25;;;24.60;77.60;;;;;;5060663;28;20060;-75
2021/06/23 09:22:34;;;;;;;0.13;0.10;;;24.70;79.30;;;;;;5028796;28;20029;-75
2021/06/23 09:25:11;;;;;;;0.30;0.30;;;24.50;77.80;;;;;;5059784;28;20979;-74
2021/06/23 09:28:10;;;;;;;0.00;0.00;;;24.10;79.80;;;;;;5067420;28;20085;-75
2021/06/23 09:30:39;;;;;;;1.83;0.77;;;24.60;79.90;;;;;;5054618;28;20530;-75
2021/06/23 09:33:24;;;;;;;0.20;0.20;;;24.90;77.70;;;;;;5061761;28;20021;-75
2021/06/23 09:35:56;;;;;;;0.10;0.10;;;25.20;76.10;;;;;;5063900;28;20021;-72
2021/06/23 09:38:33;;;;;;;0.10;0.10;;;25.80;73.40;;;;;;5055607;28;20022;-73
2021/06/23 09:41:00;;;;;;;3.30;0.65;;;26.20;73.40;;;;;;5036972;28;20024;-73
2021/06/23 09:43:40;;;;;;;1.30;1.13;;;26.70;71.30;;;;;;5069579;28;20123;-73
2021/06/23 09:46:25;;;;;;;1.33;1.23;;;26.70;69.90;;;;;;5056907;28;20471;-73
2021/06/23 09:49:06;;;;;;;0.80;0.45;;;26.90;68.80;;;;;;5047059;28;20024;-73
2021/06/23 09:51:43;;;;;;;0.00;0.00;;;27.10;67.40;;;;;;5058516;28;20020;-73
2021/06/23 09:54:11;;;;;;;0.10;0.10;;;27.30;67.50;;;;;;5067983;28;20457;-73
2021/06/23 09:56:41;;;;;;;0.10;0.10;;;27.90;66.20;;;;;;5054017;28;20033;-73
2021/06/23 09:59:08;;;;;;;1.08;0.80;;;28.00;64.50;;;;;;5052776;28;20369;-75
2021/06/23 10:01:39;;;;;;;0.43;0.30;;;28.00;63.60;;;;;;5040850;28;20396;-74
2021/06/23 10:04:08;;;;;;;;;;;27.60;63.30;;;;;;5044601;28;20123;-74
2021/06/23 10:06:36;;;;;;;1.42;0.90;;;27.90;62.90;;;;;;5058642;28;19912;-74
2021/06/23 10:09:23;;;;;;;0.80;0.45;;;27.90;60.80;;;;;;5052723;28;20115;-74
2021/06/23 10:12:15;;;;;;;1.10;1.00;;;27.60;63.00;;;;;;5060806;28;20020;-74
2021/06/23 10:14:45;;;;;;;0.00;0.00;;;27.90;63.40;;;;;;5039678;28;20094;-74
2021/06/23 10:17:12;;;;;;;0.10;0.10;;;28.00;61.60;;;;;;5042360;28;20126;-74
2021/06/23 10:19:39;;;;;;;0.90;0.80;;;27.90;63.60;;;;;;5062249;28;20090;-72
2021/06/23 10:22:06;;;;;;;0.30;0.30;;;27.70;63.40;;;;;;5065255;28;20024;-71
2021/06/23 10:24:34;;;;;;;2.63;1.42;;;27.20;63.50;;;;;;5038657;28;20082;-72
2021/06/23 10:27:03;;;;;;;0.80;0.75;;;27.50;64.00;;;;;;5043728;28;20021;-74
2021/06/23 10:29:35;;;;;;;0.10;0.10;;;27.90;62.70;;;;;;5032302;28;20040;-74
2021/06/23 10:32:04;;;;;;;0.45;0.30;;;28.30;61.00;;;;;;5058991;28;20040;-73
2021/06/23 10:34:30;;;;;;;0.85;0.85;;;28.30;60.80;;;;;;5047887;28;20021;-74
2021/06/23 10:36:57;;;;;;;0.35;0.20;;;28.50;60.60;;;;;;5061510;28;20115;-74
2021/06/23 10:39:35;;;;;;;0.10;0.10;;;28.10;61.00;;;;;;5064004;28;20020;-74
2021/06/23 10:42:06;;;;;;;0.25;0.20;;;27.60;63.00;;;;;;5060334;28;20075;-74
2021/06/23 10:44:40;;;;;;;0.13;0.10;;;27.60;63.70;;;;;;5058321;28;20017;-74
2021/06/23 10:47:08;;;;;;;0.32;0.32;;;28.20;62.60;;;;;;5043230;28;20371;-74
2021/06/23 10:49:47;;;;;;;0.13;0.10;;;28.00;62.30;;;;;;5065656;28;20111;-74
2021/06/23 10:52:22;;;;;;;0.00;0.00;;;27.60;63.50;;;;;;5048635;28;20074;-74
2021/06/23 10:54:55;;;;;;;0.00;0.00;;;27.70;64.70;;;;;;5068748;28;20032;-74
2021/06/23 10:57:40;;;;;;;3.75;1.27;;;28.00;63.80;;;;;;5056604;28;20300;-74
2021/06/23 11:00:11;;;;;;;0.00;0.00;;;28.30;61.40;;;;;;5065689;28;20032;-74
2021/06/23 11:02:39;;;;;;;0.10;0.10;;;27.80;61.30;;;;;;5064225;28;20024;-73
2021/06/23 11:05:14;;;;;;;0.17;0.17;;;27.70;61.90;;;;;;5033838;28;20488;-74
2021/06/23 11:07:55;;;;;;;0.70;0.63;;;27.10;63.70;;;;;;5056645;28;20016;-74
2021/06/23 11:10:34;;;;;;;0.32;0.32;;;26.80;64.90;;;;;;5059903;28;20392;-74
2021/06/23 11:13:04;;;;;;;0.10;0.10;;;26.40;66.40;;;;;;5045225;28;20500;-74
2021/06/23 11:15:37;;;;;;;0.00;0.00;;;26.40;66.80;;;;;;5038856;28;20051;-74
2021/06/23 11:18:31;;;;;;;1.05;0.82;;;27.20;65.90;;;;;;5063904;28;20028;-74
2021/06/23 11:21:02;;;;;;;1.35;0.57;;;27.80;62.20;;;;;;5046641;28;20042;-74
2021/06/23 11:24:01;;;;;;;0.47;0.47;;;27.80;61.10;;;;;;5025586;28;20024;-74
2021/06/23 11:26:27;;;;;;;0.03;0.03;;;27.10;64.50;;;;;;5065400;28;20040;-74
2021/06/23 11:28:55;;;;;;;0.52;0.30;;;27.00;64.60;;;;;;5038334;28;20056;-74
2021/06/23 11:31:22;;;;;;;0.38;0.38;;;26.90;65.10;;;;;;5064438;28;20025;-73
2021/06/23 11:33:51;;;;;;;1.90;1.38;;;27.20;64.60;;;;;;5057385;28;20024;-74
2021/06/23 11:36:19;;;;;;;0.10;0.10;;;27.30;64.30;;;;;;5060288;28;20028;-74
2021/06/23 11:38:46;;;;;;;0.10;0.10;;;26.60;64.90;;;;;;5056209;28;20488;-74
2021/06/23 11:41:13;;;;;;;0.00;0.00;;;26.60;67.90;;;;;;5066793;28;20024;-74
2021/06/23 11:43:39;;;;;;;0.40;0.40;;;26.50;68.30;;;;;;5063649;28;20017;-74
2021/06/23 11:46:05;;;;;;;0.30;0.30;;;26.40;67.40;;;;;;5045903;28;20074;-74
2021/06/23 11:48:31;;;;;;;2.08;1.98;;;26.90;66.60;;;;;;5045584;28;20021;-74
2021/06/23 11:50:58;;;;;;;0.40;0.40;;;26.90;65.80;;;;;;5037815;28;20025;-73
2021/06/23 11:53:25;;;;;;;0.10;0.10;;;26.80;66.60;;;;;;5052778;28;20473;-74
2021/06/23 11:55:52;;;;;;;0.30;0.30;;;26.60;66.80;;;;;;5060685;28;20064;-73
2021/06/23 11:58:18;;;;;;;0.00;0.00;;;27.30;65.20;;;;;;5043083;28;20100;-74
2021/06/23 12:00:44;;;;;;;0.00;0.00;;;27.40;65.10;;;;;;5056749;28;20202;-75
2021/06/23 12:03:14;;;;;;;0.50;0.50;;;27.20;64.60;;;;;;5043049;28;20400;-75
2021/06/23 12:05:40;;;;;;;1.08;1.08;;;27.00;64.30;;;;;;5056106;28;20108;-75
2021/06/23 12:08:06;;;;;;;0.20;0.20;;;27.00;64.30;;;;;;5063770;28;20088;-75
2021/06/23 12:10:33;;;;;;;1.90;1.38;;;26.60;66.00;;;;;;5041454;28;20079;-75
2021/06/23 12:13:00;;;;;;;1.08;0.85;;;26.20;66.40;;;;;;5059672;28;20037;-75
2021/06/23 12:15:26;;;;;;;0.30;0.30;;;25.90;67.90;;;;;;5055737;28;20536;-75
2021/06/23 12:17:57;;;;;;;0.03;0.03;;;26.40;66.90;;;;;;5055244;28;20029;-75
2021/06/23 12:20:25;;;;;;;0.30;0.30;;;26.50;65.00;;;;;;5042698;28;20020;-74
2021/06/23 12:22:59;;;;;;;0.70;0.15;;;26.30;63.60;;;;;;5038011;28;20056;-75
2021/06/23 12:25:27;;;;;;;0.50;0.50;;;26.40;64.20;;;;;;5031767;28;20375;-75
2021/06/23 12:27:54;;;;;;;0.20;0.20;;;26.50;64.50;;;;;;5060325;28;20100;-75
2021/06/23 12:30:21;;;;;;;0.65;0.65;;;26.40;65.90;;;;;;5027241;28;20032;-74
2021/06/23 12:32:47;;;;;;;0.05;0.05;;;26.40;65.10;;;;;;5063244;28;20064;-75
2021/06/23 12:35:13;;;;;;;0.32;0.32;;;26.30;66.10;;;;;;5037685;28;20475;-74
2021/06/23 12:37:39;;;;;;;1.02;0.82;;;26.30;65.60;;;;;;5055275;28;20056;-74
2021/06/23 12:40:06;;;;;;;0.05;0.05;;;26.00;66.10;;;;;;5038415;28;20036;-74
2021/06/23 12:42:32;;;;;;;4.38;1.95;;;25.90;67.20;;;;;;5038281;28;20041;-75
2021/06/23 12:44:59;;;;;;;0.17;0.17;;;26.00;67.40;;;;;;5042953;28;20074;-74
2021/06/23 12:47:24;;;;;;;0.00;0.00;;;26.10;66.60;;;;;;5032541;28;20033;-75
2021/06/23 12:49:50;;;;;;;0.85;0.75;;;26.20;67.20;;;;;;5040246;28;20025;-74
2021/06/23 12:52:16;;;;;;;0.03;0.03;;;26.10;67.30;;;;;;5038171;28;20024;-74
2021/06/23 12:54:42;;;;;;;0.30;0.30;;;26.20;66.90;;;;;;5030024;28;20029;-74
2021/06/23 12:57:08;;;;;;;0.22;0.22;;;26.50;66.20;;;;;;5055975;28;20067;-75
2021/06/23 12:59:33;;;;;;;4.07;1.85;;;26.60;66.40;;;;;;5062377;28;20112;-75
2021/06/23 13:02:00;;;;;;;0.00;0.00;;;26.30;67.10;;;;;;5047484;28;20075;-75
2021/06/23 13:04:27;;;;;;;3.70;1.15;;;26.10;68.70;;;;;;5043826;28;20040;-74
2021/06/23 13:06:54;;;;;;;1.80;0.60;;;25.90;69.20;;;;;;5025535;28;20018;-75
2021/06/23 13:09:20;;;;;;;0.38;0.38;;;25.60;69.30;;;;;;5058764;28;20025;-75
2021/06/23 13:11:46;;;;;;;0.32;0.22;;;25.50;70.50;;;;;;5055615;28;20040;-74
2021/06/23 13:14:12;;;;;;;0.60;0.60;;;25.50;70.50;;;;;;5058934;28;20028;-74
2021/06/23 13:16:38;;;;;;;0.55;0.55;;;25.80;69.70;;;;;;5060053;28;20017;-75
2021/06/23 13:19:04;;;;;;;0.35;0.35;;;25.80;68.40;;;;;;5054187;28;20486;-75
2021/06/23 13:21:29;;;;;;;3.20;0.80;;;26.00;67.70;;;;;;5057035;28;20530;-75